createdAt,value
2018-06-05T17:41:02.553Z,20.30
2018-06-05T17:43:30.961Z,20.30
2018-06-05T17:45:59.411Z,20.30
2018-06-05T17:48:27.821Z,20.30
2018-06-05T17:50:56.241Z,20.30
2018-06-05T17:53:25.126Z,20.30
2018-06-05T17:55:53.562Z,20.30
2018-06-05T17:58:21.974Z,20.20
2018-06-05T18:00:50.490Z,20.20
2018-06-05T18:05:47.031Z,20.10
2018-06-05T18:10:43.596Z,20.10
2018-06-05T18:15:40.132Z,20.00
2018-06-05T18:18:08.575Z,20.00
2018-06-05T18:20:37.007Z,20.00
2018-06-05T18:23:05.532Z,20.00
2018-06-05T18:25:36.861Z,20.00
2018-06-05T18:28:05.294Z,19.90
2018-06-05T18:30:33.711Z,19.90
2018-06-05T18:33:02.122Z,19.90
2018-06-05T18:35:30.606Z,19.90
2018-06-05T18:37:59.043Z,19.90
2018-06-05T18:40:27.644Z,19.80
2018-06-05T18:42:56.051Z,19.80
2018-06-05T18:45:24.494Z,19.80
2018-06-05T18:47:52.911Z,19.80
2018-06-05T18:50:21.327Z,19.80
2018-06-05T18:52:49.797Z,19.80
2018-06-05T18:55:18.267Z,19.70
2018-06-05T18:57:46.683Z,19.70
2018-06-05T19:00:15.071Z,19.70
2018-06-05T19:02:43.472Z,19.60
2018-06-05T19:05:11.892Z,19.60
2018-06-05T19:10:08.438Z,19.50
2018-06-05T19:12:36.842Z,19.50
2018-06-05T19:15:05.290Z,19.50
2018-06-05T19:17:33.774Z,19.50
2018-06-05T19:20:02.155Z,19.40
2018-06-05T19:22:30.574Z,19.40
2018-06-05T19:24:59.027Z,19.40
2018-06-05T19:27:27.499Z,19.30
2018-06-05T19:29:56.024Z,19.30
2018-06-05T19:32:24.422Z,19.30
2018-06-05T19:34:52.827Z,19.20
2018-06-05T19:37:21.238Z,19.20
2018-06-05T19:39:49.681Z,19.10
2018-06-05T19:42:18.111Z,19.10
2018-06-05T19:47:14.719Z,19.00
2018-06-05T19:49:43.137Z,19.00
2018-06-05T19:54:39.673Z,18.90
2018-06-05T19:57:08.086Z,18.90
2018-06-05T19:59:36.530Z,18.90
2018-06-05T20:02:04.999Z,18.80
2018-06-05T20:04:33.421Z,18.80
2018-06-05T20:07:01.851Z,18.70
2018-06-05T20:09:30.281Z,18.70
2018-06-05T20:11:58.751Z,18.70
2018-06-05T20:14:27.134Z,18.50
2018-06-05T20:16:55.548Z,18.40
2018-06-05T20:19:23.942Z,18.30
2018-06-05T20:21:52.374Z,18.20
2018-06-05T20:24:20.786Z,18.10
2018-06-05T20:26:49.390Z,18.10
2018-06-05T20:29:17.837Z,18.10
2018-06-05T20:31:46.236Z,18.00
2018-06-05T20:34:14.675Z,18.00
2018-06-05T20:36:43.083Z,18.00
2018-06-05T20:39:11.612Z,18.00
2018-06-05T20:41:40.039Z,18.00
2018-06-05T20:44:08.488Z,17.90
2018-06-05T20:49:05.283Z,17.80
2018-06-05T20:51:33.682Z,17.70
2018-06-05T20:54:02.282Z,17.60
2018-06-05T20:56:30.783Z,17.50
2018-06-05T21:01:27.327Z,17.40
2018-06-05T21:03:55.733Z,17.30
2018-06-05T21:06:24.206Z,17.20
2018-06-05T21:08:52.619Z,17.20
2018-06-05T21:11:21.032Z,17.10
2018-06-05T21:13:49.418Z,17.00
2018-06-05T21:16:17.829Z,17.00
2018-06-05T21:18:46.242Z,17.00
2018-06-05T21:21:14.700Z,17.00
2018-06-05T21:23:43.071Z,16.90
2018-06-05T21:26:11.498Z,16.90
2018-06-05T21:28:39.926Z,16.90
2018-06-05T21:31:08.346Z,16.90
2018-06-05T21:33:36.777Z,16.80
2018-06-05T21:36:05.272Z,16.80
2018-06-05T21:38:33.678Z,16.80
2018-06-05T21:41:02.076Z,16.70
2018-06-05T21:43:30.498Z,16.70
2018-06-05T21:45:58.891Z,16.60
2018-06-05T21:48:27.299Z,16.60
2018-06-05T21:50:55.706Z,16.60
2018-06-05T21:53:24.454Z,16.60
2018-06-05T21:55:52.896Z,16.50
2018-06-05T21:58:21.304Z,16.50
2018-06-05T22:01:00.837Z,16.50
2018-06-05T22:03:30.322Z,16.50
2018-06-05T22:05:58.742Z,16.50
2018-06-05T22:08:27.132Z,16.50
2018-06-05T22:10:55.529Z,16.40
2018-06-05T22:13:23.911Z,16.40
2018-06-05T22:15:52.343Z,16.40
2018-06-05T22:18:20.754Z,16.40
2018-06-05T22:20:49.150Z,16.40
2018-06-05T22:23:17.563Z,16.40
2018-06-05T22:25:45.986Z,16.30
2018-06-05T22:28:14.437Z,16.30
2018-06-05T22:30:42.830Z,16.30
2018-06-05T22:33:11.239Z,16.30
2018-06-05T22:35:39.639Z,16.30
2018-06-05T22:40:36.204Z,16.30
2018-06-05T22:45:32.709Z,16.30
2018-06-05T22:48:01.143Z,16.30
2018-06-05T22:50:29.539Z,16.20
2018-06-05T22:52:57.966Z,16.20
2018-06-05T22:55:26.397Z,16.20
2018-06-05T22:57:54.822Z,16.20
2018-06-05T23:00:34.287Z,16.10
2018-06-05T23:03:02.695Z,16.10
2018-06-05T23:05:31.178Z,16.10
2018-06-05T23:07:59.586Z,16.00
2018-06-05T23:10:28.031Z,16.00
2018-06-05T23:12:56.443Z,16.00
2018-06-05T23:15:24.896Z,16.00
2018-06-05T23:17:53.301Z,15.90
2018-06-05T23:20:21.733Z,15.80
2018-06-05T23:22:50.134Z,15.80
2018-06-05T23:25:18.538Z,15.70
2018-06-05T23:27:46.993Z,15.70
2018-06-05T23:30:15.421Z,15.60
2018-06-05T23:32:43.870Z,15.60
2018-06-05T23:35:12.298Z,15.60
2018-06-05T23:37:40.721Z,15.50
2018-06-05T23:40:09.112Z,15.50
2018-06-05T23:42:37.656Z,15.40
2018-06-05T23:45:06.098Z,15.40
2018-06-05T23:47:34.534Z,15.40
2018-06-05T23:50:02.939Z,15.40
2018-06-05T23:52:31.336Z,15.50
2018-06-05T23:54:59.758Z,15.50
2018-06-05T23:57:28.134Z,15.60
2018-06-05T23:59:56.567Z,15.60
